.
WxDataArchive / Data Records for 2011-10-09
2011-10-08 October 2011 2011-10-10

Data Records for Sunday, 09 October 2011

Time	Temp	Chill	HIndex	Humid	Dewpt	 Wind 	HiWind	WindDir	Rain 	Barom 
-----	----	-----	------	-----	-----	------	------	-------	-----	----- 
00:00	57.5	57.5	57.5	88	54.0	0	0	---	0.00	30.324 
00:05	57.3	57.3	57.3	88	53.8	0	0	---	0.00	30.324 
00:10	57.3	57.3	57.3	88	53.8	0	0	---	0.00	30.324 
00:15	57.3	57.3	57.3	88	53.8	0	1	112	0.00	30.324 
00:20	57.2	57.2	57.2	88	53.7	0	1	112	0.00	30.324 
00:25	57.2	57.2	57.2	88	53.7	0	1	112	0.00	30.324 
00:30	57.3	57.3	57.3	88	53.8	0	1	112	0.00	30.324 
00:35	57.3	57.3	57.3	88	53.8	0	1	112	0.00	30.324 
00:40	57.3	57.3	57.3	88	53.8	0	0	---	0.00	30.324 
00:45	57.3	57.3	57.3	88	53.8	0	0	---	0.00	30.323 
00:50	57.2	57.2	57.2	88	53.7	0	1	112	0.00	30.323 
00:55	57.2	57.2	57.2	88	53.7	0	1	112	0.00	30.323 
01:00	57.0	57.0	57.0	88	53.5	0	1	112	0.00	30.325 
01:05	57.0	57.0	57.0	88	53.5	0	0	---	0.00	30.325 
01:10	56.9	56.9	56.9	88	53.4	0	0	---	0.00	30.325 
01:15	56.7	56.7	56.7	88	53.2	0	0	---	0.00	30.323 
01:20	56.6	56.6	56.6	88	53.1	0	0	---	0.00	30.323 
01:25	56.5	56.5	56.5	88	53.0	0	0	---	0.00	30.323 
01:30	56.3	56.3	56.3	89	53.1	0	0	---	0.00	30.323 
01:35	56.2	56.2	56.2	89	53.0	0	0	---	0.00	30.323 
01:40	56.0	56.0	56.0	89	52.8	0	0	---	0.00	30.323 
01:45	55.9	55.9	55.9	89	52.7	0	0	---	0.00	30.322 
01:50	55.7	55.7	55.7	89	52.5	0	0	---	0.00	30.322 
01:55	55.7	55.7	55.7	89	52.5	0	0	---	0.00	30.322 
02:00	55.6	55.6	55.6	90	52.7	0	0	---	0.00	30.322 
02:05	55.4	55.4	55.4	90	52.5	0	0	---	0.00	30.322 
02:10	55.3	55.3	55.3	90	52.4	0	0	---	0.00	30.322 
02:15	55.1	55.1	55.1	91	52.5	0	0	---	0.00	30.326 
02:20	55.1	55.1	55.1	91	52.5	0	0	---	0.00	30.326 
02:25	55.0	55.0	55.0	91	52.4	0	0	---	0.00	30.326 
02:30	54.8	54.8	54.8	91	52.2	0	0	---	0.00	30.333 
02:35	54.8	54.8	54.8	91	52.2	0	0	---	0.00	30.333 
02:40	54.7	54.7	54.7	91	52.1	0	0	---	0.00	30.333 
02:45	54.5	54.5	54.5	92	52.2	0	0	---	0.00	30.336 
02:50	54.5	54.5	54.5	92	52.2	0	0	---	0.00	30.336 
02:55	54.4	54.4	54.4	92	52.1	0	0	---	0.00	30.336 
03:00	54.2	54.2	54.2	92	51.9	0	0	---	0.00	30.339 
03:05	54.1	54.1	54.1	92	51.8	0	0	---	0.00	30.339 
03:10	53.9	53.9	53.9	92	51.6	0	0	---	0.00	30.339 
03:15	53.9	53.9	53.9	92	51.6	0	0	---	0.00	30.339 
03:20	53.8	53.8	53.8	92	51.5	0	0	---	0.00	30.339 
03:25	53.8	53.8	53.8	92	51.5	0	0	---	0.00	30.339 
03:30	53.6	53.6	53.6	92	51.3	0	0	---	0.00	30.339 
03:35	53.6	53.6	53.6	93	51.6	0	0	---	0.00	30.339 
03:40	53.5	53.5	53.5	93	51.5	0	0	---	0.00	30.339 
03:45	53.3	53.3	53.3	93	51.3	0	0	---	0.00	30.340 
03:50	53.2	53.2	53.2	93	51.2	0	0	---	0.00	30.340 
03:55	53.2	53.2	53.2	93	51.2	0	0	---	0.00	30.340 
04:00	53.1	53.1	53.1	93	51.1	0	0	---	0.00	30.343 
04:05	52.9	52.9	52.9	93	50.9	0	0	---	0.00	30.343 
04:10	52.8	52.8	52.8	93	50.8	0	0	---	0.00	30.343 
04:15	52.8	52.8	52.8	93	50.8	0	0	---	0.00	30.345 
04:20	52.6	52.6	52.6	93	50.6	0	0	---	0.00	30.345 
04:25	52.5	52.5	52.5	93	50.5	0	0	---	0.00	30.345 
04:30	52.5	52.5	52.5	93	50.5	0	0	---	0.00	30.345 
04:35	52.3	52.3	52.3	93	50.3	0	0	---	0.00	30.345 
04:40	52.3	52.3	52.3	93	50.3	0	0	---	0.00	30.345 
04:45	52.2	52.2	52.2	94	50.5	0	0	---	0.00	30.342 
04:50	52.0	52.0	52.0	94	50.3	0	0	---	0.00	30.342 
04:55	52.0	52.0	52.0	94	50.3	0	0	---	0.00	30.342 
05:00	51.9	51.9	51.9	94	50.2	0	0	---	0.00	30.349 
05:05	51.9	51.9	51.9	94	50.2	0	0	---	0.00	30.349 
05:10	51.7	51.7	51.7	94	50.0	0	0	---	0.00	30.349 
05:15	51.7	51.7	51.7	94	50.0	0	0	---	0.00	30.356 
05:20	51.6	51.6	51.6	94	49.9	0	0	---	0.00	30.356 
05:25	51.4	51.4	51.4	94	49.7	0	0	---	0.00	30.356 
05:30	51.3	51.3	51.3	94	49.6	0	0	---	0.00	30.357 
05:35	51.3	51.3	51.3	94	49.6	0	0	---	0.00	30.357 
05:40	51.3	51.3	51.3	94	49.6	0	0	---	0.00	30.357 
05:45	51.3	51.3	51.3	94	49.6	0	0	---	0.00	30.359 
05:50	51.3	51.3	51.3	94	49.6	0	0	---	0.00	30.359 
05:55	51.1	51.1	51.1	94	49.4	0	0	---	0.00	30.359 
06:00	51.1	51.1	51.1	94	49.4	0	0	---	0.00	30.359 
06:05	51.1	51.1	51.1	94	49.4	0	0	---	0.00	30.359 
06:10	51.0	51.0	51.0	94	49.3	0	0	---	0.00	30.359 
06:15	51.0	51.0	51.0	94	49.3	0	0	---	0.00	30.362 
06:20	50.8	50.8	50.8	94	49.1	0	0	---	0.00	30.362 
06:25	50.8	50.8	50.8	94	49.1	0	0	---	0.00	30.362 
06:30	50.7	50.7	50.7	94	49.0	0	0	---	0.00	30.364 
06:35	50.5	50.5	50.5	94	48.8	0	0	---	0.00	30.364 
06:40	50.5	50.5	50.5	95	49.1	0	0	---	0.00	30.364 
06:45	50.4	50.4	50.4	95	49.0	0	0	---	0.00	30.367 
06:50	50.2	50.2	50.2	95	48.8	0	0	---	0.00	30.367 
06:55	50.2	50.2	50.2	95	48.8	0	0	---	0.00	30.367 
07:00	50.1	50.1	50.1	95	48.7	0	0	---	0.00	30.375 
07:05	50.1	50.1	50.1	95	48.7	0	0	---	0.00	30.375 
07:10	50.1	50.1	50.1	95	48.7	0	0	---	0.00	30.375 
07:15	49.9	49.9	49.9	95	48.5	0	0	---	0.00	30.382 
07:20	50.1	50.1	50.1	95	48.7	0	0	---	0.00	30.382 
07:25	50.1	50.1	50.1	95	48.7	0	0	---	0.00	30.382 
07:30	50.1	50.1	50.1	95	48.7	0	0	---	0.00	30.383 
07:35	49.9	49.9	49.9	95	48.5	0	0	---	0.00	30.383 
07:40	49.9	49.9	49.9	95	48.5	0	0	---	0.00	30.383 
07:45	49.8	49.8	49.8	95	48.4	0	0	---	0.00	30.385 
07:50	49.8	49.8	49.8	95	48.4	0	0	---	0.00	30.385 
07:55	49.8	49.8	49.8	95	48.4	0	0	---	0.00	30.385 
08:00	49.6	49.6	49.6	95	48.2	0	0	---	0.00	30.387 
08:05	49.6	49.6	49.6	95	48.2	0	0	---	0.00	30.387 
08:10	49.6	49.6	49.6	95	48.2	0	0	---	0.00	30.387 
08:15	49.6	49.6	49.6	95	48.2	0	0	---	0.00	30.398 
08:20	49.8	49.8	49.8	95	48.4	0	0	---	0.00	30.398 
08:25	49.9	49.9	49.9	95	48.5	0	0	---	0.00	30.398 
08:30	50.2	50.2	50.2	96	49.1	0	0	---	0.00	30.396 
08:35	50.4	50.4	50.4	96	49.3	0	0	---	0.00	30.396 
08:40	50.5	50.5	50.5	96	49.4	0	0	---	0.00	30.396 
08:45	51.0	51.0	51.0	96	49.9	0	0	---	0.00	30.401 
08:50	51.4	51.4	51.4	96	50.3	0	0	---	0.00	30.401 
08:55	51.9	51.9	51.9	96	50.8	0	0	---	0.00	30.401 
09:00	52.6	52.6	52.6	96	51.5	0	0	---	0.00	30.401 
09:05	53.3	53.3	53.3	96	52.2	0	1	112	0.00	30.401 
09:10	54.1	54.1	54.1	96	53.0	0	2	112	0.00	30.401 
09:15	54.5	54.5	54.5	96	53.4	0	3	45	0.00	30.403 
09:20	54.7	54.7	54.7	96	53.6	0	2	45	0.00	30.403 
09:25	55.0	55.0	55.0	95	53.6	0	1	45	0.00	30.403 
09:30	55.3	55.3	55.3	94	53.6	0	1	45	0.00	30.401 
09:35	55.6	55.6	55.6	94	53.9	0	0	---	0.00	30.401 
09:40	56.0	56.0	56.0	93	54.0	0	1	45	0.00	30.401 
09:45	56.7	56.7	56.7	91	54.1	0	1	45	0.00	30.397 
09:50	57.3	57.3	57.3	89	54.1	0	1	45	0.00	30.397 
09:55	58.0	58.0	58.0	88	54.5	0	1	45	0.00	30.397 
10:00	58.7	58.7	58.7	85	54.2	0	0	---	0.00	30.387 
10:05	59.6	59.6	59.6	83	54.4	0	0	---	0.00	30.387 
10:10	60.5	60.5	60.5	81	54.6	0	1	45	0.00	30.387 
10:15	61.5	61.5	61.5	78	54.6	0	1	338	0.00	30.383 
10:20	62.4	62.4	62.4	74	54.0	0	0	---	0.00	30.383 
10:25	63.4	63.4	63.4	72	54.2	0	0	---	0.00	30.383 
10:30	64.7	64.7	64.7	71	55.1	0	0	---	0.00	30.380 
10:35	65.6	65.6	65.6	71	55.9	0	0	---	0.00	30.380 
10:40	66.3	66.3	66.3	71	56.6	0	0	---	0.00	30.380 
10:45	67.1	67.1	67.1	69	56.6	0	0	---	0.00	30.377 
10:50	68.1	68.1	68.1	66	56.3	0	1	202	0.00	30.377 
10:55	69.1	69.1	69.1	66	57.3	0	1	202	0.00	30.377 
11:00	69.8	69.8	69.8	65	57.5	1	2	202	0.00	30.374 
11:05	70.3	70.3	70.3	63	57.1	0	2	202	0.00	30.374 
11:10	70.6	70.6	70.6	63	57.4	0	1	202	0.00	30.374 
11:15	70.9	70.9	70.9	61	56.8	0	1	202	0.00	30.375 
11:20	71.6	71.6	71.6	59	56.5	0	2	202	0.00	30.375 
11:25	72.5	72.5	72.5	61	58.3	0	1	202	0.00	30.375 
11:30	73.0	73.0	73.0	59	57.8	0	2	202	0.00	30.372 
11:35	73.7	73.7	73.7	58	58.0	0	1	202	0.00	30.372 
11:40	74.0	74.0	74.0	60	59.2	0	0	---	0.00	30.372 
11:45	74.6	74.6	74.6	59	59.3	0	2	202	0.00	30.368 
11:50	74.7	74.7	74.7	57	58.4	1	3	202	0.00	30.368 
11:55	74.9	74.9	74.9	57	58.6	0	2	158	0.00	30.368 
12:00	75.1	75.1	77.6	56	58.3	0	1	135	0.00	30.362 
12:05	75.4	75.4	77.7	55	58.1	1	4	90	0.00	30.362 
12:10	75.3	75.3	77.7	55	58.0	1	3	90	0.00	30.362 
12:15	75.3	75.3	77.7	54	57.5	1	3	90	0.00	30.356 
12:20	75.6	75.6	77.8	56	58.8	1	5	90	0.00	30.356 
12:25	75.6	75.6	77.8	58	59.8	1	5	68	0.00	30.356 
12:30	75.8	75.8	78.0	55	58.5	1	3	68	0.00	30.357 
12:35	75.6	75.6	77.9	54	57.8	1	3	90	0.00	30.357 
12:40	75.8	75.8	78.0	54	57.9	1	3	112	0.00	30.357 
12:45	76.0	76.0	78.1	53	57.6	1	4	112	0.00	30.357 
12:50	76.3	76.3	78.2	52	57.4	1	4	112	0.00	30.357 
12:55	76.5	76.5	78.4	55	59.1	0	2	112	0.00	30.357 
13:00	77.0	77.0	78.7	53	58.5	1	5	112	0.00	30.356 
13:05	77.0	77.0	78.7	53	58.5	1	2	90	0.00	30.356 
13:10	77.2	77.2	78.7	51	57.6	1	4	90	0.00	30.356 
13:15	77.6	77.6	78.8	47	55.8	1	3	90	0.00	30.354 
13:20	77.6	77.6	79.0	50	57.5	1	5	68	0.00	30.354 
13:25	77.6	77.6	78.9	48	56.3	1	3	112	0.00	30.354 
13:30	77.6	77.6	78.9	48	56.3	1	4	112	0.00	30.344 
13:35	77.6	77.6	78.8	46	55.2	1	4	90	0.00	30.344 
13:40	77.7	77.7	78.9	48	56.4	0	2	90	0.00	30.344 
13:45	77.9	77.9	79.0	46	55.4	1	3	90	0.00	30.337 
13:50	77.7	77.7	78.9	48	56.4	1	3	90	0.00	30.337 
13:55	77.9	77.9	79.0	47	56.0	1	3	90	0.00	30.337 
14:00	77.9	77.9	78.9	45	54.8	1	4	90	0.00	30.334 
14:05	77.7	77.7	78.8	45	54.6	1	4	90	0.00	30.334 
14:10	77.7	77.7	78.7	43	53.4	1	3	90	0.00	30.334 
14:15	77.7	77.7	78.7	43	53.4	1	3	90	0.00	30.326 
14:20	77.9	77.9	78.8	42	52.9	1	6	90	0.00	30.326 
14:25	77.9	77.9	78.8	43	53.6	2	6	90	0.00	30.326 
14:30	77.9	77.9	78.8	42	52.9	1	3	112	0.00	30.322 
14:35	77.9	77.9	78.8	42	52.9	2	4	68	0.00	30.322 
14:40	77.9	77.9	78.7	40	51.6	3	7	90	0.00	30.322 
14:45	77.9	77.9	78.9	44	54.2	2	5	90	0.00	30.315 
14:50	78.1	78.1	78.8	40	51.8	1	6	90	0.00	30.315 
14:55	78.3	78.3	78.9	41	52.6	2	5	90	0.00	30.315 
15:00	78.5	78.5	78.9	38	50.8	2	5	90	0.00	30.308 
15:05	78.5	78.5	78.9	39	51.5	2	3	112	0.00	30.308 
15:10	78.6	78.6	78.8	36	49.4	2	10	112	0.00	30.308 
15:15	78.6	78.6	78.7	34	47.9	2	5	90	0.00	30.306 
15:20	78.5	78.5	78.7	36	49.3	1	4	90	0.00	30.306 
15:25	78.5	78.5	78.6	34	47.8	1	3	90	0.00	30.306 
15:30	78.6	78.6	78.7	34	47.9	0	2	135	0.00	30.306 
15:35	78.6	78.6	78.7	34	47.9	1	3	112	0.00	30.306 
15:40	78.3	78.3	78.5	33	46.8	2	6	90	0.00	30.306 
15:45	77.9	77.9	78.3	33	46.5	1	3	90	0.00	30.310 
15:50	78.1	78.1	78.4	33	46.6	1	5	112	0.00	30.310 
15:55	78.5	78.5	78.5	32	46.2	2	5	90	0.00	30.310 
16:00	78.6	78.6	78.5	31	45.4	2	4	90	0.00	30.296 
16:05	78.8	78.8	78.6	31	45.6	2	9	90	0.00	30.296 
16:10	78.8	78.8	78.5	30	44.7	2	4	90	0.00	30.296 
16:15	78.8	78.8	78.6	31	45.6	2	5	90	0.00	30.297 
16:20	78.5	78.5	78.4	31	45.3	1	4	90	0.00	30.297 
16:25	78.3	78.3	78.4	32	46.0	1	2	90	0.00	30.297 
16:30	78.1	78.1	78.3	32	45.8	1	4	90	0.00	30.295 
16:35	78.3	78.3	78.3	30	44.3	1	3	90	0.00	30.295 
16:40	78.3	78.3	78.3	30	44.3	1	5	90	0.00	30.295 
16:45	78.3	78.3	78.3	30	44.3	1	6	90	0.00	30.296 
16:50	78.3	78.3	78.3	31	45.2	1	3	90	0.00	30.296 
16:55	78.1	78.1	78.3	32	45.8	1	3	90	0.00	30.296 
17:00	77.9	77.9	78.2	32	45.6	1	4	90	0.00	30.293 
17:05	77.7	77.7	78.1	32	45.5	1	4	90	0.00	30.293 
17:10	77.6	77.6	78.1	33	46.2	1	3	90	0.00	30.293 
17:15	77.6	77.6	78.1	33	46.2	1	2	90	0.00	30.294 
17:20	77.6	77.6	78.0	31	44.5	0	3	90	0.00	30.294 
17:25	77.6	77.6	78.1	32	45.4	0	2	90	0.00	30.294 
17:30	77.6	77.6	78.0	31	44.5	1	4	90	0.00	30.293 
17:35	77.6	77.6	78.1	32	45.4	0	3	90	0.00	30.293 
17:40	77.4	77.4	78.1	35	47.6	0	3	90	0.00	30.293 
17:45	77.0	77.0	77.9	34	46.5	1	3	90	0.00	30.285 
17:50	76.7	76.7	77.9	35	47.0	0	2	90	0.00	30.285 
17:55	76.3	76.3	77.8	37	48.1	0	1	90	0.00	30.285 
18:00	76.0	76.0	77.7	38	48.5	0	0	---	0.00	30.289 
18:05	75.6	75.6	77.6	39	48.9	0	0	---	0.00	30.289 
18:10	75.3	75.3	77.5	39	48.6	0	0	---	0.00	30.289 
18:15	74.9	74.9	74.9	40	48.9	0	0	---	0.00	30.285 
18:20	74.6	74.6	74.6	41	49.3	0	2	90	0.00	30.285 
18:25	74.4	74.4	74.4	42	49.8	0	1	90	0.00	30.285 
18:30	74.2	74.2	74.2	42	49.6	0	1	90	0.00	30.282 
18:35	74.0	74.0	74.0	43	50.1	0	1	90	0.00	30.282 
18:40	73.9	73.9	73.9	44	50.6	0	0	---	0.00	30.282 
18:45	73.7	73.7	73.7	45	51.0	0	1	90	0.00	30.278 
18:50	73.3	73.3	73.3	46	51.3	0	1	90	0.00	30.278 
18:55	73.0	73.0	73.0	46	51.0	0	1	90	0.00	30.278 
19:00	72.8	72.8	72.8	46	50.8	0	1	90	0.00	30.281 
19:05	72.5	72.5	72.5	47	51.1	0	0	---	0.00	30.281 
19:10	72.1	72.1	72.1	48	51.3	0	0	---	0.00	30.281 
19:15	71.8	71.8	71.8	49	51.6	0	0	---	0.00	30.281 
19:20	71.3	71.3	71.3	50	51.7	0	0	---	0.00	30.281 
19:25	70.8	70.8	70.8	50	51.2	0	0	---	0.00	30.281 
19:30	70.3	70.3	70.3	50	50.8	0	1	90	0.00	30.276 
19:35	70.3	70.3	70.3	50	50.8	0	2	90	0.00	30.276 
19:40	70.3	70.3	70.3	49	50.2	0	1	90	0.00	30.276 
19:45	70.3	70.3	70.3	50	50.8	0	1	90	0.00	30.275 
19:50	70.1	70.1	70.1	50	50.6	0	1	90	0.00	30.275 
19:55	69.9	69.9	69.9	50	50.4	0	1	180	0.00	30.275 
20:00	69.8	69.8	69.8	50	50.3	0	1	180	0.00	30.277 
20:05	69.4	69.4	69.4	50	49.9	0	1	180	0.00	30.277 
20:10	69.3	69.3	69.3	50	49.8	0	3	180	0.00	30.277 
20:15	69.3	69.3	69.3	50	49.8	0	1	180	0.00	30.274 
20:20	69.1	69.1	69.1	50	49.7	0	1	180	0.00	30.274 
20:25	68.9	68.9	68.9	50	49.5	0	1	180	0.00	30.274 
20:30	68.6	68.6	68.6	50	49.2	0	1	180	0.00	30.282 
20:35	68.4	68.4	68.4	51	49.6	0	0	---	0.00	30.282 
20:40	68.3	68.3	68.3	51	49.5	0	0	---	0.00	30.282 
20:45	67.9	67.9	67.9	52	49.6	0	0	---	0.00	30.286 
20:50	67.6	67.6	67.6	53	49.9	0	0	---	0.00	30.286 
20:55	67.3	67.3	67.3	53	49.6	0	0	---	0.00	30.286 
21:00	66.9	66.9	66.9	54	49.7	0	0	---	0.00	30.282 
21:05	66.4	66.4	66.4	54	49.2	0	0	---	0.00	30.282 
21:10	66.1	66.1	66.1	55	49.5	0	0	---	0.00	30.282 
21:15	65.8	65.8	65.8	55	49.2	0	0	---	0.00	30.278 
21:20	65.2	65.2	65.2	56	49.1	0	0	---	0.00	30.278 
21:25	64.7	64.7	64.7	57	49.1	0	0	---	0.00	30.278 
21:30	64.3	64.3	64.3	57	48.7	0	0	---	0.00	30.277 
21:35	64.0	64.0	64.0	58	48.9	0	0	---	0.00	30.277 
21:40	63.7	63.7	63.7	60	49.5	0	0	---	0.00	30.277 
21:45	63.4	63.4	63.4	59	48.8	0	0	---	0.00	30.279 
21:50	63.2	63.2	63.2	58	48.2	0	0	---	0.00	30.279 
21:55	63.1	63.1	63.1	58	48.1	0	0	---	0.00	30.279 
22:00	62.9	62.9	62.9	58	47.9	0	0	---	0.00	30.282 
22:05	62.9	62.9	62.9	57	47.4	0	0	---	0.00	30.282 
22:10	62.7	62.7	62.7	57	47.2	0	0	---	0.00	30.282 
22:15	62.4	62.4	62.4	58	47.4	0	0	---	0.00	30.278 
22:20	62.3	62.3	62.3	59	47.8	0	0	---	0.00	30.278 
22:25	62.0	62.0	62.0	59	47.5	0	0	---	0.00	30.278 
22:30	61.6	61.6	61.6	59	47.1	0	0	---	0.00	30.276 
22:35	61.3	61.3	61.3	60	47.3	0	0	---	0.00	30.276 
22:40	60.9	60.9	60.9	60	46.9	0	0	---	0.00	30.276 
22:45	60.5	60.5	60.5	60	46.5	0	0	---	0.00	30.276 
22:50	60.2	60.2	60.2	60	46.3	0	0	---	0.00	30.276 
22:55	60.1	60.1	60.1	61	46.6	0	0	---	0.00	30.276 
23:00	59.9	59.9	59.9	61	46.4	0	0	---	0.00	30.277 
23:05	59.8	59.8	59.8	62	46.8	0	0	---	0.00	30.277 
23:10	59.6	59.6	59.6	63	47.0	0	0	---	0.00	30.277 
23:15	59.3	59.3	59.3	64	47.1	0	0	---	0.00	30.273 
23:20	59.2	59.2	59.2	65	47.4	0	0	---	0.00	30.273 
23:25	59.0	59.0	59.0	67	48.1	0	0	---	0.00	30.273 
23:30	58.9	58.9	58.9	67	48.0	0	0	---	0.00	30.274 
23:35	58.6	58.6	58.6	67	47.7	0	0	---	0.00	30.274 
23:40	58.4	58.4	58.4	68	47.9	0	0	---	0.00	30.274 
23:45	58.3	58.3	58.3	68	47.8	0	0	---	0.00	30.277 
23:50	58.1	58.1	58.1	66	46.8	0	0	---	0.00	30.277 
23:55	58.0	58.0	58.0	66	46.7	0	0	---	0.00	30.277 

CoCoRaHS
IN-AL-39
A2 Web Hosting
Creative Commons License
GoDaddy
search engine by freefind advanced

loaded 2018-11-22 05:24:58 • last modified 2010-11-18 10:43:29
Privacy PolicyDisclaimer
• wx.awcolley.com is powered by PmWiki v.2002016 •
• all content (unless otherwise noted) © 2018 A W Colley